Time;durP1;ratioP1;P1;durP2;ratioP2;P2;SDS_P1;SDS_P2;PMS_P1;PMS_P2;Temp;Humidity;BMP_temperature;BMP_pressure;BME280_temperature;BME280_humidity;BME280_pressure;Samples;Min_cycle;Max_cycle;Signal;HPM_P1;HPM_P2
2021/10/23 00:00:37;;;;;;;83.75;43.72;;;384.40;2329.60;;;;;;5093757;28;20045;-76
2021/10/23 00:03:03;;;;;;;81.38;43.22;;;384.60;2329.60;;;;;;5094316;28;20045;-75
2021/10/23 00:05:28;;;;;;;87.53;43.25;;;384.70;2329.60;;;;;;5094705;28;20026;-75
2021/10/23 00:07:55;;;;;;;88.13;44.17;;;384.70;2329.60;;;;;;5094203;28;20039;-76
2021/10/23 00:10:21;;;;;;;92.07;46.22;;;384.60;2329.60;;;;;;5094485;28;20066;-76
2021/10/23 00:12:46;;;;;;;83.78;44.88;;;384.60;2329.60;;;;;;5119443;28;20073;-75
2021/10/23 00:15:13;;;;;;;85.60;47.55;;;384.70;2329.60;;;;;;5122783;28;20802;-75
2021/10/23 00:17:38;;;;;;;72.53;43.40;;;384.70;2329.60;;;;;;5123871;28;20023;-76
2021/10/23 00:20:05;;;;;;;80.53;47.50;;;384.60;2329.60;;;;;;5121895;28;20012;-75
2021/10/23 00:22:32;;;;;;;82.53;45.15;;;384.40;2329.60;;;;;;5123400;27;20061;-75
2021/10/23 00:25:00;;;;;;;77.57;44.38;;;384.40;2329.60;;;;;;5123020;28;20024;-78
2021/10/23 00:27:26;;;;;;;81.00;43.40;;;384.50;2329.60;;;;;;5121750;28;20023;-76
2021/10/23 00:29:52;;;;;;;81.85;44.22;;;384.40;2329.60;;;;;;5126474;28;20033;-78
2021/10/23 00:32:19;;;;;;;65.40;39.65;;;384.40;2329.60;;;;;;5132295;28;20472;-76
2021/10/23 00:34:45;;;;;;;70.47;39.58;;;384.50;2329.60;;;;;;5133846;27;20015;-76
2021/10/23 00:37:11;;;;;;;59.05;36.13;;;384.60;2329.60;;;;;;5132373;28;20058;-76
2021/10/23 00:39:37;;;;;;;59.33;36.17;;;384.50;2329.60;;;;;;5132423;28;20054;-76
2021/10/23 00:42:03;;;;;;;60.13;36.28;;;384.60;2329.60;;;;;;5133255;27;20035;-75
2021/10/23 00:44:35;;;;;;;62.88;35.78;;;384.60;2329.60;;;;;;5135830;27;20053;-75
2021/10/23 00:47:06;;;;;;;61.50;35.95;;;384.60;2329.60;;;;;;5136111;27;20053;-76
2021/10/23 00:49:33;;;;;;;53.47;33.80;;;384.70;2304.00;;;;;;5136178;27;20034;-75
2021/10/23 00:52:02;;;;;;;52.15;31.98;;;384.60;2329.60;;;;;;5136204;27;20051;-74
2021/10/23 00:54:29;;;;;;;57.75;36.15;;;384.70;2329.60;;;;;;5136233;27;20019;-76
2021/10/23 00:56:56;;;;;;;52.10;33.42;;;384.70;2329.60;;;;;;5137531;27;20395;-75
2021/10/23 00:59:22;;;;;;;54.70;34.55;;;384.70;2329.60;;;;;;5137216;27;20519;-74
2021/10/23 01:01:49;;;;;;;62.88;35.53;;;384.70;2329.60;;;;;;5135817;27;20027;-76
2021/10/23 01:04:15;;;;;;;53.53;33.35;;;384.70;2329.60;;;;;;5137193;27;20027;-75
2021/10/23 01:06:41;;;;;;;55.90;35.13;;;384.70;2329.60;;;;;;5135774;27;20406;-76
2021/10/23 01:09:07;;;;;;;52.85;34.05;;;384.70;2329.60;;;;;;5137079;27;20417;-76
2021/10/23 01:11:33;;;;;;;61.03;34.60;;;384.70;2329.60;;;;;;5136989;27;20136;-75
2021/10/23 01:13:59;;;;;;;60.35;36.17;;;384.90;2329.60;;;;;;5136839;27;20049;-76
2021/10/23 01:16:25;;;;;;;57.03;36.13;;;384.60;2329.60;;;;;;5118601;27;20076;-77
2021/10/23 01:18:51;;;;;;;60.28;35.60;;;384.60;2329.60;;;;;;5137081;27;20020;-76
2021/10/23 01:21:22;;;;;;;55.65;36.83;;;384.60;2329.60;;;;;;5118541;27;20505;-76
2021/10/23 01:23:48;;;;;;;48.78;31.30;;;384.60;2329.60;;;;;;5118148;27;20023;-76
2021/10/23 01:26:14;;;;;;;46.97;30.33;;;384.70;2329.60;;;;;;5136719;27;20140;-75
2021/10/23 01:28:39;;;;;;;51.05;33.63;;;384.60;2329.60;;;;;;5117878;27;20114;-76
2021/10/23 01:31:05;;;;;;;54.40;33.10;;;384.60;2329.60;;;;;;5118094;27;20042;-75
2021/10/23 01:33:31;;;;;;;55.67;34.38;;;384.60;2329.60;;;;;;5125695;27;20023;-77
2021/10/23 01:36:09;;;;;;;55.97;35.22;;;384.60;2124.80;;;;;;5097636;28;20149;-76
2021/10/23 01:38:34;;;;;;;51.70;33.75;;;384.60;2329.60;;;;;;5097829;28;20027;-75
2021/10/23 01:41:00;;;;;;;52.15;35.85;;;384.60;2329.60;;;;;;5115656;28;20039;-75
2021/10/23 01:43:26;;;;;;;52.10;32.28;;;384.60;2329.60;;;;;;5097468;28;20118;-75
2021/10/23 01:45:51;;;;;;;52.90;33.58;;;384.60;2329.60;;;;;;5097496;28;20039;-76
2021/10/23 01:48:17;;;;;;;59.95;34.83;;;384.60;2329.60;;;;;;5097563;28;20559;-76
2021/10/23 01:50:43;;;;;;;55.17;34.53;;;384.50;2252.80;;;;;;5115788;28;20365;-76
2021/10/23 01:53:08;;;;;;;54.35;33.88;;;384.40;2329.60;;;;;;5097555;28;20110;-76
2021/10/23 01:55:34;;;;;;;56.85;33.25;;;384.40;2329.60;;;;;;5115232;28;20054;-76
2021/10/23 01:58:00;;;;;;;49.38;32.22;;;384.50;2329.60;;;;;;5115482;28;20031;-76
2021/10/23 02:00:26;;;;;;;57.85;35.55;;;384.50;2073.60;;;;;;5097239;28;20031;-76
2021/10/23 02:02:51;;;;;;;56.83;35.45;;;384.50;2073.60;;;;;;5115340;28;20115;-77
2021/10/23 02:05:20;;;;;;;57.28;33.70;;;384.60;2124.80;;;;;;5098849;28;20534;-77
2021/10/23 02:07:47;;;;;;;59.03;34.65;;;384.40;2329.60;;;;;;5098511;28;20073;-78
2021/10/23 02:10:19;;;;;;;53.65;31.08;;;384.10;2329.60;;;;;;5098132;28;20035;-77
2021/10/23 02:12:53;;;;;;;51.85;32.17;;;384.20;2329.60;;;;;;5098073;28;20066;-77
2021/10/23 02:15:19;;;;;;;43.63;28.38;;;384.10;2329.60;;;;;;5127882;27;20081;-75
2021/10/23 02:17:45;;;;;;;42.35;27.38;;;384.00;2329.60;;;;;;5117416;27;20035;-76
2021/10/23 02:20:12;;;;;;;44.30;25.70;;;359.30;2329.60;;;;;;5117483;27;20378;-76
2021/10/23 02:22:39;;;;;;;27.50;19.10;;;359.20;2329.60;;;;;;5135786;27;20388;-76
2021/10/23 02:25:06;;;;;;;26.55;15.80;;;359.10;2329.60;;;;;;5117177;27;20016;-76
2021/10/23 02:27:32;;;;;;;28.73;18.75;;;359.00;2329.60;;;;;;5117183;27;20042;-76
2021/10/23 02:29:59;;;;;;;28.67;18.80;;;358.90;2329.60;;;;;;5099052;28;20027;-76
2021/10/23 02:32:25;;;;;;;13.70;8.77;;;358.80;2329.60;;;;;;5135003;27;20492;-76
2021/10/23 02:34:50;;;;;;;13.55;7.38;;;358.60;2329.60;;;;;;5116933;27;20491;-76
2021/10/23 02:37:16;;;;;;;12.68;5.20;;;333.60;2329.60;;;;;;5135348;27;20016;-76
2021/10/23 02:39:42;;;;;;;9.65;4.13;;;333.40;2329.60;;;;;;5116794;27;20061;-76
2021/10/23 02:42:08;;;;;;;9.10;4.82;;;332.90;2329.60;;;;;;5116672;27;20038;-76
2021/10/23 02:44:34;;;;;;;11.20;5.13;;;308.10;2304.00;;;;;;5116488;27;20034;-75
2021/10/23 02:47:00;;;;;;;16.73;4.93;;;307.80;2304.00;;;;;;5134923;27;20114;-76
2021/10/23 02:49:26;;;;;;;11.82;5.60;;;307.70;2304.00;;;;;;5135047;27;20023;-76
2021/10/23 02:51:52;;;;;;;11.23;5.47;;;307.70;2304.00;;;;;;5134981;27;20412;-76
2021/10/23 02:54:17;;;;;;;11.18;4.57;;;307.70;2304.00;;;;;;5134991;27;20015;-76
2021/10/23 02:56:43;;;;;;;9.52;4.60;;;307.70;2304.00;;;;;;5134977;27;20027;-76
2021/10/23 02:59:09;;;;;;;8.60;4.28;;;307.70;2304.00;;;;;;5116526;27;20277;-76
2021/10/23 03:01:35;;;;;;;11.82;3.88;;;307.80;2304.00;;;;;;5116371;27;20122;-75
2021/10/23 03:04:01;;;;;;;10.10;3.80;;;307.80;2304.00;;;;;;5134778;27;20030;-76
2021/10/23 03:06:27;;;;;;;10.98;4.13;;;307.60;2304.00;;;;;;5134107;27;20030;-76
2021/10/23 03:08:52;;;;;;;8.40;3.78;;;307.60;2304.00;;;;;;5116232;27;20019;-76
2021/10/23 03:11:18;;;;;;;8.55;4.10;;;307.50;2304.00;;;;;;5107895;28;20036;-76
2021/10/23 03:13:44;;;;;;;11.93;4.57;;;307.70;2304.00;;;;;;5109589;27;20645;-76
2021/10/23 03:16:11;;;;;;;7.80;4.38;;;307.60;2304.00;;;;;;5116055;27;20047;-76
2021/10/23 03:18:37;;;;;;;11.70;4.60;;;307.70;2304.00;;;;;;5116338;27;20540;-75
2021/10/23 03:21:03;;;;;;;16.67;4.95;;;307.80;2304.00;;;;;;5116056;27;20109;-76
2021/10/23 03:23:29;;;;;;;11.48;5.07;;;307.70;2304.00;;;;;;5116172;27;20027;-75
2021/10/23 03:25:55;;;;;;;12.32;5.07;;;307.60;2304.00;;;;;;5134511;27;20030;-77
2021/10/23 03:28:21;;;;;;;12.80;4.28;;;307.70;2304.00;;;;;;5130355;27;20024;-76
2021/10/23 03:30:47;;;;;;;9.77;4.88;;;307.80;2304.00;;;;;;5101542;27;20031;-77
2021/10/23 03:33:12;;;;;;;10.07;4.35;;;307.90;2304.00;;;;;;5132141;27;20102;-77
2021/10/23 03:35:38;;;;;;;13.02;4.53;;;307.80;2304.00;;;;;;5100699;27;20053;-77
2021/10/23 03:38:05;;;;;;;7.60;3.20;;;307.90;2304.00;;;;;;5115952;27;20019;-79
2021/10/23 03:40:31;;;;;;;9.02;4.00;;;307.80;2304.00;;;;;;5101877;27;20066;-77
2021/10/23 03:42:56;;;;;;;15.02;4.30;;;307.90;2304.00;;;;;;5115827;27;20059;-77
2021/10/23 03:45:22;;;;;;;;;;;307.90;2304.00;;;;;;5116145;27;20031;-77
2021/10/23 03:47:48;;;;;;;7.15;2.90;;;307.80;2304.00;;;;;;5115437;27;20276;-76
2021/10/23 03:50:14;;;;;;;11.57;4.03;;;307.70;2304.00;;;;;;5114901;27;20035;-76
2021/10/23 03:52:40;;;;;;;10.88;4.20;;;307.90;2304.00;;;;;;5115494;27;20531;-76
2021/10/23 03:55:06;;;;;;;5.70;2.97;;;307.80;2304.00;;;;;;5111648;28;20040;-76
2021/10/23 03:57:32;;;;;;;8.55;3.15;;;307.70;2304.00;;;;;;5114920;27;20011;-76
2021/10/23 03:59:58;;;;;;;7.80;3.42;;;307.80;2304.00;;;;;;5114874;28;20034;-76
2021/10/23 04:02:24;;;;;;;9.30;3.35;;;307.80;2304.00;;;;;;5111584;28;20065;-76
2021/10/23 04:04:49;;;;;;;10.45;3.42;;;307.60;2304.00;;;;;;5115608;28;20023;-77
2021/10/23 04:07:15;;;;;;;9.32;3.25;;;307.40;2304.00;;;;;;5111772;28;20167;-76
2021/10/23 04:09:41;;;;;;;11.75;3.20;;;307.60;2304.00;;;;;;5115511;28;20023;-76
2021/10/23 04:12:07;;;;;;;7.50;3.55;;;307.60;2304.00;;;;;;5111608;28;20075;-76
2021/10/23 04:14:32;;;;;;;6.13;3.17;;;307.60;2304.00;;;;;;5115328;28;20491;-76
2021/10/23 04:16:58;;;;;;;;;;;307.50;2304.00;;;;;;5115827;27;20037;-77
2021/10/23 04:19:24;;;;;;;9.20;3.53;;;307.60;2304.00;;;;;;5119343;27;19961;-76
2021/10/23 04:21:50;;;;;;;11.55;3.60;;;307.50;2304.00;;;;;;5138056;27;20066;-77
2021/10/23 04:24:16;;;;;;;7.22;3.83;;;307.60;2304.00;;;;;;5138042;27;20051;-76
2021/10/23 04:26:41;;;;;;;7.13;3.67;;;307.50;2304.00;;;;;;5119399;27;20031;-76
2021/10/23 04:29:07;;;;;;;9.07;4.50;;;307.40;2304.00;;;;;;5119441;27;20028;-76
2021/10/23 04:31:33;;;;;;;13.80;5.35;;;307.40;2304.00;;;;;;5116873;27;20496;-76
2021/10/23 04:34:01;;;;;;;12.65;4.82;;;307.30;2304.00;;;;;;5107327;27;20066;-76
2021/10/23 04:36:27;;;;;;;16.55;7.28;;;307.30;2304.00;;;;;;5119148;27;20027;-77
2021/10/23 04:38:53;;;;;;;17.67;8.48;;;307.30;2304.00;;;;;;5112514;28;20020;-76
2021/10/23 04:41:18;;;;;;;19.80;8.77;;;282.50;2278.40;;;;;;5130098;27;20456;-77
2021/10/23 04:43:44;;;;;;;;;;;282.50;2278.40;;;;;;5118505;27;20027;-76
2021/10/23 04:46:10;;;;;;;16.73;8.88;;;282.50;2278.40;;;;;;5137242;27;19907;-76
2021/10/23 04:48:36;;;;;;;11.65;6.78;;;282.40;2278.40;;;;;;5118927;27;20027;-76
2021/10/23 04:51:02;;;;;;;15.32;7.45;;;282.50;2278.40;;;;;;5137668;27;20019;-76
2021/10/23 04:53:28;;;;;;;13.13;6.72;;;282.30;2278.40;;;;;;5104215;27;20055;-76
2021/10/23 04:55:54;;;;;;;11.15;5.32;;;282.30;2278.40;;;;;;5119065;27;20094;-76
2021/10/23 04:58:20;;;;;;;8.73;4.28;;;282.30;2278.40;;;;;;5119040;27;20463;-76
2021/10/23 05:00:46;;;;;;;;;;;282.40;2278.40;;;;;;5119059;27;20412;-76
2021/10/23 05:03:11;;;;;;;5.25;3.35;;;282.40;2278.40;;;;;;5118487;27;19918;-77
2021/10/23 05:05:37;;;;;;;13.30;3.65;;;282.50;2278.40;;;;;;5118581;27;20027;-76
2021/10/23 05:08:03;;;;;;;9.48;3.65;;;282.30;2278.40;;;;;;5137236;27;20023;-76
2021/10/23 05:10:29;;;;;;;8.88;3.42;;;282.40;2278.40;;;;;;5118379;27;20059;-76
2021/10/23 05:12:55;;;;;;;8.63;3.20;;;282.40;2278.40;;;;;;5136943;27;20074;-77
2021/10/23 05:15:21;;;;;;;6.70;2.70;;;282.20;2278.40;;;;;;5118510;27;20088;-76
2021/10/23 05:17:47;;;;;;;14.40;7.43;;;282.50;2278.40;;;;;;5117939;27;20701;-74
2021/10/23 05:20:13;;;;;;;17.38;5.60;;;282.50;2278.40;;;;;;5118182;27;20384;-73
2021/10/23 05:22:39;;;;;;;10.85;4.32;;;282.50;2278.40;;;;;;5136770;27;20439;-75
2021/10/23 05:25:05;;;;;;;7.78;3.58;;;307.30;2304.00;;;;;;5136809;27;20522;-78
2021/10/23 05:27:31;;;;;;;5.82;2.78;;;307.30;2304.00;;;;;;5107132;28;20027;-80
2021/10/23 05:29:58;;;;;;;7.00;3.28;;;307.40;2304.00;;;;;;5115003;27;20015;-80
2021/10/23 05:32:23;;;;;;;12.68;3.38;;;307.30;2304.00;;;;;;5111358;27;20026;-80
2021/10/23 05:34:49;;;;;;;21.48;5.13;;;307.30;2304.00;;;;;;5117506;27;20011;-78
2021/10/23 05:37:15;;;;;;;;;;;307.30;2304.00;;;;;;5114654;28;20023;-79
2021/10/23 05:39:41;;;;;;;12.48;5.03;;;307.30;2304.00;;;;;;5132991;27;19907;-77
2021/10/23 05:42:07;;;;;;;10.48;5.18;;;307.20;2304.00;;;;;;5110488;27;20052;-78
2021/10/23 05:44:33;;;;;;;12.77;5.60;;;282.50;2278.40;;;;;;5118485;27;20015;-80
2021/10/23 05:46:58;;;;;;;9.25;3.92;;;307.20;2304.00;;;;;;5117282;27;20027;-77
2021/10/23 05:49:24;;;;;;;;;;;307.30;2304.00;;;;;;5136434;27;20019;-79
2021/10/23 05:51:51;;;;;;;10.75;3.70;;;307.20;2304.00;;;;;;5136605;27;19903;-81
2021/10/23 05:54:16;;;;;;;23.90;10.32;;;282.50;2278.40;;;;;;5114631;28;20020;-76
2021/10/23 05:56:42;;;;;;;20.05;9.43;;;282.50;2278.40;;;;;;5103020;27;20045;-77
2021/10/23 05:59:11;;;;;;;17.00;8.38;;;282.50;2278.40;;;;;;5099496;28;20054;-77
2021/10/23 06:01:39;;;;;;;10.90;4.80;;;282.40;2278.40;;;;;;5109511;27;20473;-77
2021/10/23 06:04:05;;;;;;;16.67;5.15;;;282.30;2278.40;;;;;;5135815;27;20018;-75
2021/10/23 06:06:31;;;;;;;12.93;5.70;;;282.40;2278.40;;;;;;5117645;27;20031;-77
2021/10/23 06:08:57;;;;;;;15.10;6.82;;;282.50;2278.40;;;;;;5117706;27;20044;-78
2021/10/23 06:11:23;;;;;;;12.45;5.90;;;307.30;2304.00;;;;;;5111892;27;20047;-78
2021/10/23 06:13:50;;;;;;;12.57;5.50;;;307.40;2304.00;;;;;;5115900;27;20427;-78
2021/10/23 06:16:16;;;;;;;14.15;6.00;;;307.50;2304.00;;;;;;5117629;27;20051;-78
2021/10/23 06:18:42;;;;;;;18.00;7.07;;;307.60;2304.00;;;;;;5117906;27;20061;-78
2021/10/23 06:21:07;;;;;;;;;;;307.50;2304.00;;;;;;5121984;27;20019;-78
2021/10/23 06:23:33;;;;;;;17.17;7.40;;;307.50;2304.00;;;;;;5117538;27;19907;-78
2021/10/23 06:26:00;;;;;;;15.13;7.82;;;307.50;2304.00;;;;;;5135969;27;20491;-78
2021/10/23 06:28:26;;;;;;;12.65;6.95;;;307.40;2304.00;;;;;;5117679;27;20019;-78
2021/10/23 06:30:52;;;;;;;15.68;7.65;;;307.60;2304.00;;;;;;5117374;27;20061;-76
2021/10/23 06:33:19;;;;;;;;;;;307.60;2304.00;;;;;;5117507;27;20117;-77
2021/10/23 06:35:44;;;;;;;19.63;10.00;;;307.30;2304.00;;;;;;5117248;27;19903;-77
2021/10/23 06:38:10;;;;;;;23.10;8.88;;;307.40;2304.00;;;;;;5116960;27;20030;-77
2021/10/23 06:40:36;;;;;;;21.80;7.05;;;307.30;2304.00;;;;;;5116474;28;20122;-78
2021/10/23 06:43:02;;;;;;;20.35;8.88;;;307.30;2304.00;;;;;;5135011;27;20076;-77
2021/10/23 06:45:29;;;;;;;13.27;6.35;;;307.30;2304.00;;;;;;5102391;27;20476;-78
2021/10/23 06:47:56;;;;;;;20.55;8.98;;;307.30;2304.00;;;;;;5116985;27;20479;-76
2021/10/23 06:50:22;;;;;;;16.88;7.13;;;307.20;2304.00;;;;;;5113575;28;20023;-79
2021/10/23 06:52:48;;;;;;;16.50;8.23;;;307.30;2304.00;;;;;;5124407;27;20027;-79
2021/10/23 06:55:14;;;;;;;17.63;7.82;;;307.40;2304.00;;;;;;5115774;27;20426;-77
2021/10/23 06:57:40;;;;;;;16.25;7.88;;;307.40;2304.00;;;;;;5117059;27;20114;-78
2021/10/23 07:00:07;;;;;;;17.67;7.50;;;307.60;2304.00;;;;;;5115681;27;20485;-78
2021/10/23 07:02:38;;;;;;;17.00;7.30;;;307.50;2304.00;;;;;;5101897;27;20035;-78
2021/10/23 07:05:07;;;;;;;19.00;7.22;;;307.50;2304.00;;;;;;5134873;27;20457;-78
2021/10/23 07:07:33;;;;;;;21.60;7.78;;;307.60;2304.00;;;;;;5111511;28;20529;-80
2021/10/23 07:09:59;;;;;;;16.58;6.60;;;307.60;2304.00;;;;;;5107094;27;20118;-81
2021/10/23 07:12:25;;;;;;;10.93;5.32;;;307.70;2304.00;;;;;;5134573;27;20074;-75
2021/10/23 07:14:50;;;;;;;11.68;4.90;;;307.80;2304.00;;;;;;5101532;27;20066;-75
2021/10/23 07:17:16;;;;;;;12.30;4.60;;;307.80;2304.00;;;;;;5134521;27;20083;-74
2021/10/23 07:19:42;;;;;;;8.07;4.45;;;307.80;2304.00;;;;;;5116326;27;20024;-78
2021/10/23 07:22:07;;;;;;;11.93;4.80;;;307.80;2304.00;;;;;;5134409;27;20468;-77
2021/10/23 07:24:33;;;;;;;10.30;5.05;;;307.80;2304.00;;;;;;5116102;27;20058;-76
2021/10/23 07:26:59;;;;;;;;;;;308.00;2304.00;;;;;;5128063;27;20045;-75
2021/10/23 07:29:24;;;;;;;12.57;5.25;;;307.90;2304.00;;;;;;5108817;27;19903;-77
2021/10/23 07:31:50;;;;;;;;;;;307.90;2304.00;;;;;;5111632;28;20522;-78
2021/10/23 07:34:16;;;;;;;14.55;4.40;;;307.80;2304.00;;;;;;5106442;27;19903;-75
2021/10/23 07:36:41;;;;;;;9.13;4.00;;;307.80;2304.00;;;;;;5115861;27;20059;-75
2021/10/23 07:39:07;;;;;;;14.85;4.72;;;307.70;2304.00;;;;;;5115994;27;20023;-77
2021/10/23 07:41:33;;;;;;;17.25;6.18;;;307.90;2304.00;;;;;;5115547;27;20084;-76
2021/10/23 07:43:59;;;;;;;14.20;5.03;;;307.80;2304.00;;;;;;5116108;27;20056;-75
2021/10/23 07:46:25;;;;;;;;;;;307.80;2304.00;;;;;;5116386;27;20061;-76
2021/10/23 07:48:50;;;;;;;11.55;4.45;;;307.80;2304.00;;;;;;5129305;27;19907;-76
2021/10/23 07:51:16;;;;;;;13.40;4.82;;;307.80;2304.00;;;;;;5123990;27;20080;-75
2021/10/23 07:53:42;;;;;;;10.50;3.90;;;307.90;2304.00;;;;;;5115399;27;20064;-75
2021/10/23 07:56:07;;;;;;;10.40;4.15;;;308.00;2304.00;;;;;;5115454;27;20459;-77
2021/10/23 07:58:33;;;;;;;9.35;3.58;;;308.10;2304.00;;;;;;5114699;27;20048;-79
2021/10/23 08:00:59;;;;;;;12.23;3.88;;;308.10;2304.00;;;;;;5114683;27;20067;-78
2021/10/23 08:03:25;;;;;;;9.98;3.72;;;308.10;2304.00;;;;;;5133766;27;20039;-75
2021/10/23 08:05:51;;;;;;;9.93;4.28;;;308.10;2304.00;;;;;;5133911;27;20399;-75
2021/10/23 08:08:16;;;;;;;10.43;3.88;;;308.00;2304.00;;;;;;5133265;28;20023;-74
2021/10/23 08:10:42;;;;;;;13.25;3.92;;;308.10;2304.00;;;;;;5133684;28;20023;-74
2021/10/23 08:13:09;;;;;;;10.93;3.47;;;308.10;2304.00;;;;;;5128506;28;20047;-81
2021/10/23 08:15:36;;;;;;;12.80;3.80;;;308.10;2304.00;;;;;;5124542;28;20425;-80
2021/10/23 08:18:03;;;;;;;11.57;2.97;;;332.80;2329.60;;;;;;5130368;28;20011;-74
2021/10/23 08:20:33;;;;;;;14.93;3.63;;;332.80;2329.60;;;;;;5116966;28;20015;-83
2021/10/23 08:23:00;;;;;;;15.50;4.05;;;332.90;2329.60;;;;;;5133672;28;20027;-74
2021/10/23 08:25:26;;;;;;;13.38;6.78;;;332.90;2329.60;;;;;;5133752;28;20099;-77
2021/10/23 08:27:52;;;;;;;15.68;6.35;;;332.90;2329.60;;;;;;5133776;28;20110;-74
2021/10/23 08:30:18;;;;;;;15.38;7.47;;;332.90;2329.60;;;;;;5095171;28;20024;-74
2021/10/23 08:32:46;;;;;;;11.13;5.63;;;332.90;2329.60;;;;;;5118796;28;20054;-73
2021/10/23 08:35:17;;;;;;;10.27;4.35;;;333.00;2329.60;;;;;;5133156;28;20463;-80
2021/10/23 08:37:46;;;;;;;8.93;4.50;;;332.90;2329.60;;;;;;5114935;28;20023;-73
2021/10/23 08:40:13;;;;;;;21.90;5.20;;;332.80;2329.60;;;;;;5133509;28;20018;-79
2021/10/23 08:42:39;;;;;;;13.23;5.97;;;332.80;2329.60;;;;;;5132646;28;20499;-78
2021/10/23 08:45:06;;;;;;;12.77;5.63;;;308.10;2304.00;;;;;;5133253;28;20031;-74
2021/10/23 08:47:36;;;;;;;14.68;6.65;;;308.10;2304.00;;;;;;5122304;28;20027;-73
2021/10/23 08:50:04;;;;;;;13.00;6.07;;;332.80;2329.60;;;;;;5127742;28;20486;-72
2021/10/23 08:52:30;;;;;;;12.48;4.55;;;332.80;2329.60;;;;;;5127466;28;20027;-76
2021/10/23 08:54:56;;;;;;;13.68;6.28;;;332.80;2329.60;;;;;;5107374;28;20031;-74
2021/10/23 08:57:26;;;;;;;11.07;5.07;;;332.90;2329.60;;;;;;5126776;28;20082;-73
2021/10/23 08:59:59;;;;;;;16.88;4.20;;;333.00;2329.60;;;;;;5113233;28;20036;-74
2021/10/23 09:02:26;;;;;;;12.35;5.07;;;332.90;2329.60;;;;;;5124736;28;20107;-78
2021/10/23 09:04:54;;;;;;;16.33;6.07;;;332.90;2329.60;;;;;;5131394;27;20064;-75
2021/10/23 09:07:22;;;;;;;22.50;6.00;;;332.90;2329.60;;;;;;5118840;27;20020;-77
2021/10/23 09:09:54;;;;;;;18.63;7.38;;;333.10;2329.60;;;;;;5137481;27;20031;-80
2021/10/23 09:12:31;;;;;;;15.25;6.15;;;333.20;2329.60;;;;;;5136669;27;20038;-80
2021/10/23 09:15:00;;;;;;;12.05;5.72;;;333.10;2329.60;;;;;;5122726;27;20023;-80
2021/10/23 09:17:26;;;;;;;15.95;6.00;;;333.20;2329.60;;;;;;5118983;27;20031;-76
2021/10/23 09:19:54;;;;;;;20.17;9.25;;;333.20;2329.60;;;;;;5122621;27;20015;-77
2021/10/23 09:22:38;;;;;;;18.58;7.45;;;333.20;2329.60;;;;;;5137169;27;20027;-75
2021/10/23 09:25:30;;;;;;;15.48;5.68;;;333.40;2329.60;;;;;;5118615;27;20015;-81
2021/10/23 09:28:13;;;;;;;12.20;6.22;;;333.20;2329.60;;;;;;5118828;27;20081;-80
2021/10/23 09:30:42;;;;;;;16.73;6.80;;;333.10;2329.60;;;;;;5118650;27;20025;-75
2021/10/23 09:33:15;;;;;;;17.90;7.47;;;333.20;2329.60;;;;;;5136716;27;20110;-79
2021/10/23 09:35:46;;;;;;;15.77;6.93;;;333.40;2329.60;;;;;;5136799;27;20030;-75
2021/10/23 09:38:14;;;;;;;11.93;5.05;;;333.40;2329.60;;;;;;5136769;27;20026;-74
2021/10/23 09:40:45;;;;;;;10.82;4.95;;;333.60;2329.60;;;;;;5136686;27;20434;-74
2021/10/23 09:43:18;;;;;;;13.85;4.80;;;333.60;2329.60;;;;;;5136505;27;20043;-75
2021/10/23 09:45:56;;;;;;;12.73;3.40;;;333.70;2329.60;;;;;;5136606;27;20019;-77
2021/10/23 09:48:49;;;;;;;15.52;5.22;;;358.40;2329.60;;;;;;5136310;27;20019;-78
2021/10/23 09:51:28;;;;;;;14.57;5.65;;;333.70;2329.60;;;;;;5118442;27;20514;-74
2021/10/23 09:54:02;;;;;;;13.25;6.03;;;333.70;2329.60;;;;;;5136513;27;20015;-81
2021/10/23 09:56:33;;;;;;;16.50;6.05;;;333.70;2329.60;;;;;;5118492;27;20027;-74
2021/10/23 09:59:02;;;;;;;15.45;4.75;;;358.50;2329.60;;;;;;5136294;27;20007;-74
2021/10/23 10:01:33;;;;;;;8.10;3.40;;;358.60;2329.60;;;;;;5136460;27;20027;-75
2021/10/23 10:04:07;;;;;;;10.13;3.47;;;358.60;2329.60;;;;;;5135876;27;20019;-74
2021/10/23 10:06:34;;;;;;;16.45;5.00;;;358.70;2329.60;;;;;;5117205;27;20034;-74
2021/10/23 10:09:02;;;;;;;15.02;6.63;;;358.80;2329.60;;;;;;5135833;27;20064;-78
2021/10/23 10:11:28;;;;;;;19.05;7.18;;;358.80;2329.60;;;;;;5116822;27;20038;-74
2021/10/23 10:13:55;;;;;;;12.05;5.18;;;358.80;2329.60;;;;;;5135067;27;20361;-74
2021/10/23 10:16:21;;;;;;;14.75;5.15;;;358.70;2329.60;;;;;;5111705;27;20031;-75
2021/10/23 10:18:47;;;;;;;11.65;4.95;;;358.60;2329.60;;;;;;5135368;27;20460;-73
2021/10/23 10:21:17;;;;;;;10.63;3.70;;;358.80;2329.60;;;;;;5135356;27;20405;-77
2021/10/23 10:23:44;;;;;;;9.85;4.18;;;358.80;2329.60;;;;;;5132521;27;20019;-74
2021/10/23 10:26:25;;;;;;;9.00;3.97;;;358.60;2329.60;;;;;;5117139;27;20039;-74
2021/10/23 10:29:06;;;;;;;12.13;3.90;;;358.90;2329.60;;;;;;5130312;27;20475;-74
2021/10/23 10:31:54;;;;;;;14.63;3.88;;;358.80;2329.60;;;;;;5135518;27;20058;-75
2021/10/23 10:43:00;;;;;;;9.25;3.38;;;358.80;2329.60;;;;;;5135245;27;20122;-75
2021/10/23 10:45:56;;;;;;;14.10;4.20;;;358.70;2329.60;;;;;;5116743;27;20383;-75
2021/10/23 10:48:26;;;;;;;10.60;4.78;;;358.70;2329.60;;;;;;5111410;27;20068;-74
2021/10/23 10:51:04;;;;;;;10.80;5.38;;;358.80;2329.60;;;;;;5101855;27;20099;-75
2021/10/23 10:53:31;;;;;;;15.15;4.90;;;358.90;2329.60;;;;;;5116194;27;20064;-81
2021/10/23 10:56:03;;;;;;;12.32;4.78;;;358.90;2329.60;;;;;;5134920;27;20033;-75
2021/10/23 10:58:52;;;;;;;14.48;7.50;;;358.80;2329.60;;;;;;5135075;27;20020;-76
2021/10/23 11:01:21;;;;;;;9.80;3.80;;;358.90;2329.60;;;;;;5116018;27;20042;-75
2021/10/23 11:04:02;;;;;;;10.38;5.70;;;359.00;2329.60;;;;;;5134262;27;20042;-74
2021/10/23 11:06:41;;;;;;;13.98;6.80;;;359.00;2329.60;;;;;;5132398;27;20097;-75
2021/10/23 11:09:16;;;;;;;12.77;6.57;;;359.00;2329.60;;;;;;5132105;27;20025;-78
2021/10/23 11:11:44;;;;;;;11.57;4.72;;;359.00;2329.60;;;;;;5108709;28;20040;-75
2021/10/23 11:14:14;;;;;;;19.70;5.13;;;359.00;2329.60;;;;;;5113932;28;20420;-73
2021/10/23 11:16:40;;;;;;;14.35;6.38;;;359.00;2329.60;;;;;;5114188;28;20058;-74
2021/10/23 11:19:06;;;;;;;24.13;8.57;;;358.90;2329.60;;;;;;5114053;28;20047;-76
2021/10/23 11:21:32;;;;;;;13.13;6.07;;;358.90;2329.60;;;;;;5077636;28;20036;-75
2021/10/23 11:23:58;;;;;;;18.00;8.38;;;358.90;2329.60;;;;;;5110012;28;20107;-77
2021/10/23 11:26:24;;;;;;;12.35;6.03;;;359.00;2329.60;;;;;;5099681;28;20377;-75
2021/10/23 11:28:50;;;;;;;11.63;5.35;;;358.90;2329.60;;;;;;5113291;28;20111;-74
2021/10/23 11:31:23;;;;;;;13.95;4.93;;;359.00;2329.60;;;;;;5113792;28;20461;-74
2021/10/23 11:33:50;;;;;;;10.65;4.78;;;359.20;2329.60;;;;;;5113769;28;20026;-74
2021/10/23 11:36:16;;;;;;;10.90;4.45;;;359.30;2329.60;;;;;;5113641;28;20027;-75
2021/10/23 11:38:51;;;;;;;10.20;4.63;;;359.20;2329.60;;;;;;5113734;28;20016;-76
2021/10/23 11:41:25;;;;;;;9.55;4.28;;;359.20;2329.60;;;;;;5113639;28;20027;-77
2021/10/23 11:44:08;;;;;;;8.15;2.85;;;359.30;2329.60;;;;;;5095528;28;20028;-77
2021/10/23 11:46:35;;;;;;;11.75;3.80;;;384.00;2329.60;;;;;;5095465;28;20031;-76
2021/10/23 11:49:07;;;;;;;7.70;3.00;;;384.30;2329.60;;;;;;5099512;28;20048;-76
2021/10/23 11:51:34;;;;;;;13.68;4.43;;;384.10;2329.60;;;;;;5095344;28;20047;-74
2021/10/23 11:54:05;;;;;;;9.32;3.50;;;384.10;2329.60;;;;;;5095157;28;20019;-75
2021/10/23 11:56:31;;;;;;;6.80;3.20;;;384.10;2329.60;;;;;;5113455;28;20047;-75
2021/10/23 11:58:59;;;;;;;12.20;3.53;;;384.10;2329.60;;;;;;5113313;28;20384;-80
2021/10/23 12:01:28;;;;;;;13.32;4.22;;;359.30;2329.60;;;;;;5095156;28;20024;-78
2021/10/23 12:03:59;;;;;;;14.45;4.60;;;384.00;2329.60;;;;;;5094979;28;20023;-75
2021/10/23 12:06:39;;;;;;;13.35;5.40;;;384.10;2329.60;;;;;;5113319;28;20385;-75
2021/10/23 12:09:23;;;;;;;12.52;5.47;;;384.00;2329.60;;;;;;5094899;28;20408;-81
2021/10/23 12:12:20;;;;;;;11.13;5.30;;;384.00;2329.60;;;;;;5121512;28;20047;-77
2021/10/23 12:14:45;;;;;;;12.23;6.03;;;384.00;2329.60;;;;;;5097712;28;20119;-76
2021/10/23 12:17:11;;;;;;;13.45;5.10;;;384.10;2329.60;;;;;;5115508;28;20065;-76
2021/10/23 12:19:40;;;;;;;14.80;5.88;;;384.20;2329.60;;;;;;5133461;28;20068;-76
2021/10/23 12:22:08;;;;;;;16.33;6.65;;;359.30;2329.60;;;;;;5133696;28;20035;-76